Raul Dos Santos

Chefscout - Leon
19 Aug 2027
Donnerstag
Verarbeitung

Persönlichkeit

Anpassungsfähigkeit (6) Ehrgeiz (20) Kontroverse (9) Loyalität (3) Druck (11) Professionalität (11) Fairness (5) Temperament (8)

Profil

Trainerstil Demokratisch
Lizenz Kontinentale B
Entschlossenheit 9
Menschenführung 14
Motivation 12
Disziplin 13
Arbeitszufriedenheit
100%
Ermüdung
0%
Rolle Chefscout
Gehalt 90.1K p/W
Vertrag 14.03.2030

Leistung

Verhalten Gut
Trainingseffektivität
38%
Spielerentwicklung
50%
Verletzungsprävention
50%
Taktische Umsetzung
40%

Letzte Ereignisse

Nahm an einer Scouting-Besprechung teil jetzt
Empfahl ein Transferziel jetzt
Empfahl ein Transferziel jetzt
Nahm an einer Scouting-Besprechung teil jetzt
Empfahl ein Transferziel jetzt
Empfahl ein Transferziel 7T her
Nahm an einer Scouting-Besprechung teil 7T her
Empfahl ein Transferziel 7T her

Aktuell beobachtet

173
Spieler Verein Status Fähigkeit Vertrauen Beobachtet Zuletzt beobachtet Letzte Stimme
Rodrigo Schlegel Atlas Bericht bereit 117 / 116 62% 1 16.08.2027 -
Álex Lizancos Burgos Aktiv 140 / 135 40% 2 27.07.2027 -
Marc Domènech Andorra Aktiv 104 / 120 40% 1 27.07.2027 -
Filip Marschall Stevenage Aktiv 128 / 120 40% 4 26.07.2027 -
Aleix Garrido Eibar Aktiv 124 / 133 40% 1 23.07.2027 -
Arnau Martínez Valencia Aktiv 151 / 151 40% 1 23.07.2027 -
Izan Merino Málaga Aktiv 124 / 127 40% 1 22.07.2027 -
Soungoutou Magassa West Ham United Aktiv 141 / 146 40% 1 21.07.2027 -
Radek Vítek Middlesbrough Aktiv 149 / 148 40% 2 20.07.2027 -
Matías Gómez Granada Aktiv 123 / 122 40% 2 20.07.2027 -
Unai Marrero Real Sociedad Aktiv 145 / 133 40% 1 20.07.2027 -
Will Fish Cardiff City Aktiv 127 / 120 40% 1 20.07.2027 -
Moussa Diakité Cádiz Aktiv 117 / 125 40% 2 16.07.2027 -
Ronnie Edwards Queens Park Rangers Aktiv 140 / 134 40% 1 05.07.2027 -
Felipe Parra Envigado Verloren 120 / 123 40% 4 01.07.2027 -
Jamie Cumming Oxford United Aktiv 127 / 126 40% 4 30.06.2027 -
James Trafford Leeds United Aktiv 144 / 142 40% 2 21.06.2027 -
Georgie Gent Barnsley Aktiv 110 / 111 40% 2 15.06.2027 -
Justin Devenny Stoke City Aktiv 125 / 124 40% 1 15.06.2027 -
Juninho Pumas UNAM Verloren 122 / 123 62% 1 02.06.2027 Befürworten
Raúl Rangel Sporting CP Aktiv 132 / 132 66% 1 01.06.2027 Befürworten
Facundo Torres LOSC Lille Aktiv 134 / 134 67% 1 01.06.2027 Befürworten
Killian Cahill Leyton Orient Aktiv 97 / 114 40% 2 30.05.2027 -
Beau Reus Waasland-Beveren Aktiv 119 / 133 40% 4 29.05.2027 -
Callum O'Hare Sheffield United Aktiv 133 / 132 40% 2 29.05.2027 -
Giovanni Simeone Torino Aktiv 136 / 135 40% 1 29.05.2027 -
Kamarni Ryan Burton Albion Aktiv 108 / 100 40% 1 28.05.2027 -
Rayan Bournemouth Aktiv 144 / 140 40% 1 28.05.2027 -
Murphy Cooper Plymouth Argyle Aktiv 130 / 111 40% 2 27.05.2027 -
Manuel Ospina Cortulua Aktiv 131 / 130 40% 3 27.05.2027 -
Will Lankshear Middlesbrough Aktiv 126 / 122 40% 2 27.05.2027 -
Romano Floriani Mussolini Avellino Aktiv 120 / 132 40% 1 27.05.2027 -
Sidny Lopes Cabral Trabzonspor Aktiv 134 / 128 40% 1 27.05.2027 -
Diego Rossi Monterrey Aktiv 136 / 129 40% 2 23.05.2027 -
Yehvann Diouf OGC Nice Aktiv 131 / 143 40% 1 23.05.2027 -
Cameron Archer Southampton Aktiv 128 / 132 40% 1 23.05.2027 -
João Gonçalves Felgueiras Aktiv 110 / 110 40% 1 21.05.2027 -
Lorenzo Palmisani Frosinone Aktiv 138 / 127 40% 6 20.05.2027 -
Adriel Torreense Aktiv 110 / 123 40% 2 20.05.2027 -
Kostantis Tzolakis Hull City Aktiv 132 / 140 40% 7 18.05.2027 -
Sergio Barlocco Trento Aktiv 102 / 111 40% 1 18.05.2027 -
Matteo Rizzo Cosenza Aktiv 108 / 115 40% 1 17.05.2027 -
Erick Reyes Toluca Aktiv 135 / 143 40% 5 16.05.2027 -
Michael Cooper Sheffield United Aktiv 137 / 136 40% 4 15.05.2027 -
Yousef Salech Cardiff City Aktiv 135 / 120 40% 7 14.05.2027 -
Héctor Holguín Veracruz Aktiv 118 / 113 40% 6 14.05.2027 -
Luis Vázquez Birmingham Aktiv 134 / 133 40% 4 14.05.2027 -
Cezary Miszta Rio Ave Aktiv 138 / 131 40% 3 12.05.2027 -
Christian Ebere Cruz Azul Aktiv 130 / 117 40% 1 12.05.2027 -
Soufiane Rahimi Guadalajara Aktiv 138 / 132 40% 1 12.05.2027 -
Keinan Davis Udinese Aktiv 133 / 132 40% 1 09.05.2027 -
Bento Al-Nassr Aktiv 121 / 141 40% 3 07.05.2027 -
Deniz Ertaş Konyaspor Aktiv 116 / 126 40% 1 07.05.2027 -
Joel McGregor Swindon Town Aktiv 89 / 101 40% 1 07.05.2027 -
Zian Flemming Ipswich Town Aktiv 121 / 136 40% 2 05.05.2027 -
Che Adams Torino Aktiv 151 / 136 40% 1 05.05.2027 -
Kutlwano Letlhaku Ajax Cape Town Aktiv 128 / 119 40% 1 04.05.2027 -
Maduka Okoye Udinese Aktiv 134 / 139 40% 2 29.04.2027 -
Stav Toriel Hapoel Tel Aviv Aktiv 124 / 134 40% 2 29.04.2027 -
Ahmed Kutucu Konyaspor Aktiv 126 / 128 40% 1 27.04.2027 -
Gianluca Saro Foggia Aktiv 98 / 110 40% 2 21.04.2027 -
Joe Gelhardt Hull City Aktiv 132 / 126 40% 1 21.04.2027 -
Manuel Roffo Cerro Porteno Aktiv 135 / 133 40% 3 19.04.2027 -
George Wickens Lincoln City Aktiv 105 / 119 40% 4 18.04.2027 -
Hwang Hee-Chan Wolverhampton Aktiv 131 / 140 40% 1 18.04.2027 -
Cesare Galeotti Trapani Aktiv 104 / 102 40% 1 16.04.2027 -
Bradley Mabunda SuperSport United Aktiv 111 / 116 40% 3 15.04.2027 -
Leo Kokubo Sint-Truiden Aktiv 124 / 119 40% 1 15.04.2027 -
Pol Tristán Barnsley Aktiv 107 / 113 40% 6 14.04.2027 -
Zach Hemming Chesterfield Aktiv 96 / 109 40% 3 14.04.2027 -
Francesco D'Alterio Ternana Aktiv 95 / 108 40% 2 13.04.2027 -
Heorhii Yermakov Metalist Aktiv 109 / 120 40% 3 12.04.2027 -
Luis Ingolotti Atlético Tucumán Aktiv 116 / 120 40% 3 11.04.2027 -
Nathan Bishop AFC Wimbledon Aktiv 96 / 109 40% 2 10.04.2027 -
Santiago Simón Toluca Aktiv 116 / 120 40% 1 09.04.2027 -
Kevin Vazquez Cruz Azul Aktiv 132 / 134 40% 2 08.04.2027 -
Thomas De Bruyne Mouscron Aktiv 129 / 128 40% 1 28.03.2027 -
Grégoire Coudert Burnley Aktiv 141 / 128 40% 2 25.03.2027 -
Will Dennis Milton Keynes Dons Aktiv 95 / 103 40% 1 23.03.2027 -
Santiago Silva CFR Cluj Aktiv 114 / 122 40% 6 22.03.2027 -
Oleksandr Saputin Poltava Aktiv 115 / 124 40% 2 22.03.2027 -
Lévi Ntumba Slavia Sofia Aktiv 102 / 102 40% 1 12.03.2027 -
Strahinja Manojlović Radnicki Nis Aktiv 113 / 112 40% 1 02.03.2027 -
Juan Cruz Martins Jihlava Aktiv 96 / 100 40% 2 01.01.2027 -
Ilyas Ansah Hull City Aktiv 127 / 139 40% 2 01.01.2027 -
Luiz Henrique West Ham United Aktiv 142 / 143 68% 1 01.01.2027 Befürworten
Andreas Trimmel Red Bull Salzburg Aktiv 131 / 131 60% 1 01.01.2027 -
Adnan Courtois KV Oostende Aktiv 124 / 131 40% 1 31.12.2026 -
Nicolò Tresoldi Club Brugge Aktiv 137 / 135 40% 2 30.12.2026 -
Etiosa Ighodaro Kaizer Chiefs Aktiv 95 / 111 40% 2 30.12.2026 -
Bamba Dieng Crvena Zvezda Aktiv 126 / 124 40% 2 28.12.2026 -
Agustín Módica Gimnasia y Esgrima Aktiv 118 / 120 40% 5 27.12.2026 -
Marezi Portsmouth Aktiv 115 / 131 40% 1 27.12.2026 -
Tommy Conway Middlesbrough Aktiv 118 / 125 40% 1 26.12.2026 -
Mohamed-Ali Cho Hull City Aktiv 142 / 131 40% 1 26.12.2026 -
Robin Roefs Sunderland Aktiv 158 / 147 40% 1 24.12.2026 -
Alexander Díaz Deportivo Riestra Aktiv 118 / 117 40% 3 22.12.2026 -
George Hirst Stoke City Aktiv 129 / 134 40% 1 21.12.2026 -
Kwame Opoku Asante Kotoko Aktiv 97 / 105 40% 1 21.12.2026 -
Tyrese Campbell Sheffield United Aktiv 125 / 124 40% 2 20.12.2026 -
Manuel Rios La Equidad Aktiv 100 / 112 40% 2 20.12.2026 -
Aune Heggebø West Bromwich Albion Aktiv 113 / 120 40% 4 17.12.2026 -
Everton Bala Levski Aktiv 131 / 122 40% 1 17.12.2026 -
Lassina Traoré Shakhtar Aktiv 119 / 118 40% 1 16.12.2026 -
Ozziel Herrera Tigres Aktiv 131 / 122 40% 4 14.12.2026 -
Ruben van Bommel Ferencvaros Aktiv 132 / 138 40% 2 13.12.2026 -
Brayan León Mamelodi Sundowns Aktiv 102 / 116 40% 1 13.12.2026 -
Manfred Ugalde Spartak Moscow Aktiv 128 / 131 40% 1 11.12.2026 -
Nahuel Ulariaga Hapoel Beer Sheva Aktiv 116 / 114 40% 1 10.12.2026 -
Mduduzi Shabalala Kaizer Chiefs Aktiv 116 / 110 40% 1 10.12.2026 -
Matko Miljevic Racing Club Aktiv 119 / 124 40% 1 10.12.2026 -
Luciano Gondou CSKA Moscow Aktiv 124 / 124 40% 1 08.12.2026 -
Razvan Balasa Crvena Zvezda Aktiv 149 / 148 40% 2 07.12.2026 -
Yago Santiago Racing Santander Aktiv 109 / 120 40% 1 06.12.2026 -
Lorent Tolaj Plymouth Argyle Aktiv 115 / 119 40% 1 04.12.2026 -
Mauro Casoli Talleres Aktiv 97 / 108 40% 5 30.11.2026 -
Themba Ngcobo SuperSport United Aktiv 115 / 124 40% 2 30.11.2026 -
Dom Ballard Leyton Orient Aktiv 104 / 118 40% 1 30.11.2026 -
Nicolás Cordero Aldosivi Aktiv 121 / 116 40% 1 27.11.2026 -
Mandla Mahlangu Ajax Cape Town Aktiv 115 / 98 40% 1 25.11.2026 -
Duk Atlas Aktiv 111 / 107 40% 1 24.11.2026 Mehr Infos nötig
Brian Rodríguez Club America Aktiv 134 / 130 40% 1 20.11.2026 -
Nicolás Sumavil Platense Aktiv 120 / 122 40% 3 16.11.2026 -
Tom Cannon Sheffield United Aktiv 136 / 129 40% 1 16.11.2026 -
Luca Martínez Dupuy Godoy Cruz Aktiv 122 / 123 40% 2 13.11.2026 -
Lucas Varaldo Central Córdoba SdE Aktiv 120 / 115 40% 1 09.11.2026 -
Agustín Paz Progreso Aktiv 112 / 109 40% 2 07.11.2026 -
Niklas Steffen Thun Aktiv 102 / 124 40% 1 06.11.2026 -
Tshepang Moremi Orlando Pirates Aktiv 132 / 114 40% 1 04.11.2026 -
Jaminton Campaz Rosario Central Aktiv 122 / 126 40% 1 04.11.2026 -
Agustín Lastra Estudiantes Aktiv 100 / 114 40% 1 01.11.2026 -
Javier Martínez Almirante Brown Aktiv 115 / 112 40% 1 30.10.2026 -
Rafael Navarro St. Louis CITY SC Aktiv 130 / 123 40% 2 29.10.2026 -
Santiago Sala Güemes Aktiv 102 / 111 40% 2 27.10.2026 -
Enzo Vázquez Central Norte Aktiv 109 / 109 40% 1 26.10.2026 -
Diego Romero Universitario Aktiv 131 / 121 40% 2 24.10.2026 -
Kévin Denkey FC Cincinnati Aktiv 119 / 125 40% 2 22.10.2026 -
Mauro Valiente Estudiantes Aktiv 104 / 114 40% 2 19.10.2026 -
Alexis Cuello San Lorenzo Aktiv 117 / 128 40% 1 19.10.2026 -
Santiago Montiel Independiente Aktiv 123 / 121 40% 1 19.10.2026 -
Renzo Reynaga Patronato Aktiv 108 / 111 40% 1 17.10.2026 -
Franco Díaz Temperley Aktiv 122 / 125 40% 1 16.10.2026 -
Ramiro Hernandes Belgrano Aktiv 119 / 130 40% 1 16.10.2026 -
Joaquín Enrico San Telmo Aktiv 115 / 103 40% 1 16.10.2026 -
Francisco Salerno Defensores Unidos Aktiv 110 / 110 40% 2 07.10.2026 -
Juan Rocca Gimnasia y Tiro Aktiv 107 / 104 40% 1 07.10.2026 -
Tomás Durso Atlético Tucumán Aktiv 128 / 115 40% 1 07.10.2026 -
Axel Pérez NK Domzale Aktiv 98 / 101 40% 1 05.10.2026 -
Misael Sosa Godoy Cruz Aktiv 122 / 115 40% 1 04.10.2026 -
Lautaro Amadé Defensa y Justicia Aktiv 110 / 114 40% 1 04.10.2026 -
Tadeo Allende Inter Miami CF Aktiv 124 / 118 40% 1 30.09.2026 -
Juan Cruz de los Santos Nacional Aktiv 112 / 118 40% 1 29.09.2026 -
Alan Velasco Boca Juniors Aktiv 118 / 124 40% 1 27.09.2026 -
Sebastián Cocimano Nueva Chicago Aktiv 105 / 112 40% 1 27.09.2026 -
Tomás González Piast Aktiv 124 / 122 40% 1 26.09.2026 -
Facundo Vila Estudiantes Aktiv 97 / 104 40% 1 26.09.2026 -
Kelvin Yeboah Minnesota United FC Aktiv 120 / 131 40% 1 20.09.2026 -
Mauricio Márquez Caracas Aktiv 92 / 107 40% 1 18.09.2026 -
Jeriel De Santis Caracas Aktiv 103 / 105 40% 1 18.09.2026 -
Martín Ojeda Orlando City Aktiv 138 / 131 40% 2 17.09.2026 -
Vicente Bernedo Universidad Catolica Aktiv 90 / 89 40% 1 17.09.2026 -
Bénie Traoré New York City Aktiv 124 / 126 40% 1 14.09.2026 -
Roman Celentano FC Cincinnati Aktiv 126 / 122 40% 1 13.09.2026 -
Luis Ramos Alianza Lima Aktiv 120 / 118 40% 1 09.09.2026 -
Agustín Venezia Iquique Aktiv 113 / 114 40% 1 08.09.2026 -
Bairon Monroy San Marcos de Arica Aktiv 87 / 98 40% 1 08.09.2026 -
Wessam Abou Ali Columbus Crew Aktiv 131 / 129 40% 1 07.09.2026 -
Jesus Ferreira Seattle Sounders Aktiv 137 / 129 40% 1 07.09.2026 -
Patrick Yazbek Nashville SC Aktiv 125 / 123 40% 1 31.08.2026 -
Sebastián Vargas Nacional Aktiv 100 / 112 40% 1 31.08.2026 -
Bayron Duarte Queretaro Aktiv 102 / 119 58% 1 24.08.2026 -
Israel Reyes CSKA Moscow Aktiv 137 / 137 68% 1 17.08.2026 Befürworten
Matías Dufour Sportivo Trinidense Aktiv 98 / 108 40% 1 01.08.2026 -